Time;durP1;ratioP1;P1;durP2;ratioP2;P2;SDS_P1;SDS_P2;PMS_P1;PMS_P2;Temp;Humidity;BMP_temperature;BMP_pressure;BME280_temperature;BME280_humidity;BME280_pressure;Samples;Min_cycle;Max_cycle;Signal;HPM_P1;HPM_P2
2023/07/21 00:01:07;;;;;;;1.98;1.67;;;23.50;78.30;;;;;;5033095;28;20250;-74
2023/07/21 00:03:34;;;;;;;1.70;1.70;;;23.40;78.40;;;;;;5023955;28;20654;-72
2023/07/21 00:06:06;;;;;;;1.63;1.50;;;23.40;78.60;;;;;;5029002;28;20254;-72
2023/07/21 00:08:32;;;;;;;1.60;1.60;;;23.40;78.20;;;;;;5033842;28;20215;-72
2023/07/21 00:10:58;;;;;;;1.98;1.80;;;23.40;78.50;;;;;;5033701;28;20185;-72
2023/07/21 00:13:25;;;;;;;1.42;1.42;;;23.40;78.60;;;;;;5036507;28;20825;-72
2023/07/21 00:15:51;;;;;;;2.78;1.77;;;23.30;79.00;;;;;;5029957;28;20625;-72
2023/07/21 00:18:16;;;;;;;1.88;1.77;;;23.30;78.80;;;;;;5035795;28;20184;-72
2023/07/21 00:20:42;;;;;;;2.38;1.73;;;23.30;79.10;;;;;;5023616;28;20726;-73
2023/07/21 00:23:08;;;;;;;2.53;1.67;;;23.30;78.90;;;;;;5030345;28;20180;-72
2023/07/21 00:25:35;;;;;;;5.25;1.90;;;23.30;79.10;;;;;;5026688;28;20195;-73
2023/07/21 00:28:01;;;;;;;2.03;1.77;;;23.20;78.90;;;;;;5034147;28;20583;-73
2023/07/21 00:30:27;;;;;;;2.00;1.77;;;23.20;78.90;;;;;;5032818;28;20179;-73
2023/07/21 00:32:52;;;;;;;2.42;1.75;;;23.20;79.00;;;;;;5034787;28;20183;-74
2023/07/21 00:35:18;;;;;;;1.50;1.50;;;23.20;79.00;;;;;;5035659;28;20230;-73
2023/07/21 00:37:44;;;;;;;4.90;1.90;;;23.10;79.80;;;;;;5032897;28;20237;-73
2023/07/21 00:40:10;;;;;;;2.65;1.45;;;23.10;79.90;;;;;;5026930;28;20665;-73
2023/07/21 00:42:36;;;;;;;1.73;1.42;;;22.90;81.70;;;;;;5037266;28;20214;-73
2023/07/21 00:45:03;;;;;;;1.20;1.20;;;22.70;81.80;;;;;;5035195;28;20233;-73
2023/07/21 00:47:29;;;;;;;3.15;1.63;;;22.60;82.70;;;;;;5031597;28;20216;-73
2023/07/21 00:49:56;;;;;;;1.50;1.40;;;22.60;81.70;;;;;;5039822;28;20570;-73
2023/07/21 00:52:26;;;;;;;1.48;1.40;;;22.60;83.30;;;;;;5033426;28;20184;-73
2023/07/21 00:54:52;;;;;;;3.33;1.80;;;22.60;83.70;;;;;;5028529;28;20181;-72
2023/07/21 00:57:20;;;;;;;1.45;1.45;;;22.50;83.70;;;;;;5028549;28;20596;-73
2023/07/21 00:59:46;;;;;;;2.03;1.92;;;22.50;82.90;;;;;;5029747;28;20176;-73
2023/07/21 01:02:12;;;;;;;1.63;1.50;;;22.50;84.00;;;;;;5029674;28;20628;-73
2023/07/21 01:04:39;;;;;;;1.48;1.38;;;22.50;83.00;;;;;;5028712;28;20184;-72
2023/07/21 01:07:11;;;;;;;1.75;1.67;;;22.60;83.00;;;;;;5030467;28;20215;-73
2023/07/21 01:09:39;;;;;;;1.52;1.42;;;22.60;81.10;;;;;;5030107;28;20184;-73
2023/07/21 01:12:06;;;;;;;2.10;2.00;;;22.60;80.70;;;;;;5029091;28;21490;-73
2023/07/21 01:14:36;;;;;;;1.52;1.52;;;22.70;80.60;;;;;;5032713;28;20665;-72
2023/07/21 01:17:02;;;;;;;2.67;1.50;;;22.70;80.50;;;;;;5024334;28;20781;-72
2023/07/21 01:19:29;;;;;;;1.67;1.58;;;22.60;82.00;;;;;;5040376;28;20261;-73
2023/07/21 01:22:06;;;;;;;1.33;1.33;;;22.50;80.90;;;;;;5030995;28;20242;-72
2023/07/21 01:24:37;;;;;;;2.30;1.50;;;22.50;80.80;;;;;;5034679;28;20195;-72
2023/07/21 01:27:06;;;;;;;3.17;1.70;;;22.50;81.20;;;;;;5031790;28;20188;-72
2023/07/21 01:29:37;;;;;;;2.03;1.95;;;22.50;80.70;;;;;;5036362;28;20184;-72
2023/07/21 01:32:06;;;;;;;1.95;1.50;;;22.40;81.10;;;;;;5035285;28;20833;-72
2023/07/21 01:34:33;;;;;;;1.30;1.20;;;22.40;81.50;;;;;;5042993;28;20585;-72
2023/07/21 01:37:01;;;;;;;2.35;1.45;;;22.40;81.40;;;;;;5034080;28;20180;-73
2023/07/21 01:39:28;;;;;;;1.55;1.52;;;22.40;81.60;;;;;;5033531;28;20176;-73
2023/07/21 01:41:55;;;;;;;1.45;1.45;;;22.40;81.90;;;;;;5043106;28;20242;-72
2023/07/21 01:44:22;;;;;;;1.75;1.52;;;22.30;82.10;;;;;;5037153;28;20265;-72
2023/07/21 01:46:48;;;;;;;2.55;2.00;;;22.30;81.90;;;;;;5033540;28;20721;-73
2023/07/21 01:49:15;;;;;;;1.80;1.70;;;22.30;81.90;;;;;;5030667;28;20188;-72
2023/07/21 01:51:43;;;;;;;1.73;1.63;;;22.30;81.70;;;;;;5037531;28;20230;-72
2023/07/21 01:54:26;;;;;;;1.70;1.70;;;22.30;81.90;;;;;;5036378;28;20256;-72
2023/07/21 01:57:06;;;;;;;1.30;1.30;;;22.30;81.30;;;;;;5036181;28;20673;-72
2023/07/21 01:59:32;;;;;;;1.55;1.55;;;22.30;81.40;;;;;;5031747;28;20215;-72
2023/07/21 02:01:59;;;;;;;1.75;1.75;;;22.30;82.30;;;;;;5026339;28;20204;-72
2023/07/21 02:04:25;;;;;;;2.42;1.70;;;22.20;82.30;;;;;;5035576;28;20207;-71
2023/07/21 02:06:51;;;;;;;4.05;1.75;;;22.20;82.30;;;;;;5030245;28;20589;-72
2023/07/21 02:09:19;;;;;;;2.03;1.80;;;22.20;82.60;;;;;;5035694;28;20176;-73
2023/07/21 02:11:45;;;;;;;2.42;1.73;;;22.20;82.70;;;;;;5033519;28;20253;-73
2023/07/21 02:14:11;;;;;;;1.80;1.58;;;22.10;83.00;;;;;;5032442;28;20267;-73
2023/07/21 02:16:37;;;;;;;1.60;1.60;;;22.10;83.20;;;;;;5032626;28;20262;-72
2023/07/21 02:19:05;;;;;;;2.78;1.60;;;22.10;83.30;;;;;;5035775;28;20192;-72
2023/07/21 02:21:34;;;;;;;2.30;1.73;;;22.00;83.40;;;;;;5029899;28;20177;-72
2023/07/21 02:24:00;;;;;;;1.50;1.50;;;22.00;83.70;;;;;;5034274;28;20272;-72
2023/07/21 02:26:26;;;;;;;3.92;1.42;;;22.00;83.50;;;;;;5057699;28;22002;-72
2023/07/21 02:28:52;;;;;;;1.38;1.35;;;22.00;83.50;;;;;;5029983;28;20225;-72
2023/07/21 02:31:21;;;;;;;2.15;1.52;;;21.90;83.70;;;;;;5033939;28;20688;-73
2023/07/21 02:33:47;;;;;;;1.30;1.27;;;21.90;83.60;;;;;;5042922;28;20180;-73
2023/07/21 02:36:13;;;;;;;2.28;1.83;;;21.90;83.70;;;;;;5033980;28;20237;-73
2023/07/21 02:38:39;;;;;;;1.80;1.65;;;21.90;83.80;;;;;;5029647;28;20209;-72
2023/07/21 02:41:05;;;;;;;2.90;1.83;;;22.00;83.60;;;;;;5035949;28;20211;-73
2023/07/21 02:43:35;;;;;;;4.07;1.85;;;22.00;83.40;;;;;;5038210;28;20176;-73
2023/07/21 02:46:01;;;;;;;1.63;1.52;;;22.00;83.40;;;;;;5030035;28;20188;-73
2023/07/21 02:48:28;;;;;;;1.48;1.48;;;22.00;83.40;;;;;;5031693;28;20212;-73
2023/07/21 02:50:58;;;;;;;2.70;1.90;;;22.00;83.30;;;;;;5035424;28;20176;-73
2023/07/21 02:53:24;;;;;;;5.57;1.90;;;22.00;83.30;;;;;;5034912;28;20195;-73
2023/07/21 02:55:50;;;;;;;1.83;1.77;;;22.00;83.10;;;;;;5029881;28;20196;-72
2023/07/21 02:58:17;;;;;;;2.33;2.22;;;22.00;83.30;;;;;;5042929;28;20195;-73
2023/07/21 03:00:43;;;;;;;1.65;1.60;;;21.90;83.40;;;;;;5036625;28;20181;-74
2023/07/21 03:03:14;;;;;;;5.25;1.95;;;21.90;83.40;;;;;;5033421;28;20172;-74
2023/07/21 03:05:41;;;;;;;4.57;1.92;;;21.90;83.40;;;;;;5028147;28;20184;-72
2023/07/21 03:08:08;;;;;;;1.52;1.42;;;21.90;83.20;;;;;;5034331;28;20237;-71
2023/07/21 03:10:34;;;;;;;1.27;1.27;;;21.80;83.40;;;;;;5032715;28;20180;-72
2023/07/21 03:12:59;;;;;;;1.60;1.60;;;21.80;83.50;;;;;;5035840;28;20190;-72
2023/07/21 03:15:25;;;;;;;1.63;1.55;;;21.80;83.80;;;;;;5036578;28;20583;-73
2023/07/21 03:17:52;;;;;;;2.20;2.10;;;21.80;83.70;;;;;;5030193;28;20192;-73
2023/07/21 03:20:17;;;;;;;3.33;2.08;;;21.70;83.70;;;;;;5029508;28;20264;-73
2023/07/21 03:22:44;;;;;;;2.97;1.95;;;21.70;83.80;;;;;;5029915;28;20263;-73
2023/07/21 03:25:12;;;;;;;4.00;2.08;;;21.70;84.00;;;;;;5037643;28;20211;-73
2023/07/21 03:27:41;;;;;;;1.67;1.67;;;21.70;84.00;;;;;;5029438;28;20669;-72
2023/07/21 03:30:09;;;;;;;1.70;1.70;;;21.70;84.10;;;;;;5036611;28;20584;-74
2023/07/21 03:32:36;;;;;;;2.30;1.80;;;21.60;84.40;;;;;;5036294;28;20184;-73
2023/07/21 03:35:05;;;;;;;2.33;1.67;;;21.60;84.30;;;;;;5032281;28;20706;-74
2023/07/21 03:37:34;;;;;;;1.55;1.45;;;21.60;84.40;;;;;;5031087;28;20665;-73
2023/07/21 03:40:03;;;;;;;1.80;1.80;;;21.60;84.30;;;;;;5028629;28;20188;-73
2023/07/21 03:42:28;;;;;;;1.95;1.85;;;21.60;84.20;;;;;;5030745;28;20164;-73
2023/07/21 03:44:54;;;;;;;1.77;1.67;;;21.60;84.40;;;;;;5030691;28;20185;-73
2023/07/21 03:47:20;;;;;;;1.58;1.58;;;21.60;84.50;;;;;;5029771;28;20279;-73
2023/07/21 03:49:50;;;;;;;1.67;1.60;;;21.60;84.60;;;;;;5034275;28;20172;-73
2023/07/21 03:52:16;;;;;;;2.10;2.00;;;21.60;84.40;;;;;;5034918;28;20651;-73
2023/07/21 03:54:41;;;;;;;3.83;2.58;;;21.60;84.70;;;;;;5027321;28;20675;-73
2023/07/21 03:57:07;;;;;;;1.83;1.73;;;21.60;84.70;;;;;;5035488;28;20196;-70
2023/07/21 03:59:33;;;;;;;3.13;2.17;;;21.60;84.90;;;;;;5027243;28;20180;-72
2023/07/21 04:01:58;;;;;;;2.35;2.08;;;21.60;84.80;;;;;;5031764;28;20302;-72
2023/07/21 04:04:24;;;;;;;2.33;1.45;;;21.50;84.80;;;;;;5030308;28;20172;-73
2023/07/21 04:06:50;;;;;;;1.95;1.95;;;21.50;85.00;;;;;;5030411;28;20188;-72
2023/07/21 04:09:15;;;;;;;2.00;1.90;;;21.50;85.10;;;;;;5030692;28;20169;-72
2023/07/21 04:11:42;;;;;;;2.38;1.75;;;21.50;85.30;;;;;;5030475;28;20186;-72
2023/07/21 04:14:08;;;;;;;1.77;1.77;;;21.50;85.30;;;;;;5032515;28;20513;-72
2023/07/21 04:16:34;;;;;;;1.77;1.67;;;21.50;85.50;;;;;;5034265;28;20191;-72
2023/07/21 04:19:00;;;;;;;3.63;2.00;;;21.50;86.10;;;;;;5029811;28;20180;-72
2023/07/21 04:21:25;;;;;;;3.75;2.22;;;21.40;86.00;;;;;;5032520;28;20220;-72
2023/07/21 04:23:52;;;;;;;2.53;2.38;;;21.40;86.10;;;;;;5029279;28;20223;-73
2023/07/21 04:26:18;;;;;;;6.07;2.13;;;21.40;86.40;;;;;;5034907;28;20737;-71
2023/07/21 04:28:44;;;;;;;2.40;2.20;;;21.40;86.30;;;;;;5031222;28;20212;-72
2023/07/21 04:31:10;;;;;;;4.35;1.90;;;21.30;86.60;;;;;;5042200;28;20183;-72
2023/07/21 04:33:36;;;;;;;1.90;1.83;;;21.30;86.70;;;;;;5030091;28;20199;-71
2023/07/21 04:36:08;;;;;;;2.08;1.83;;;21.30;86.70;;;;;;5031276;28;20552;-72
2023/07/21 04:38:34;;;;;;;2.42;1.80;;;21.30;86.20;;;;;;5028121;28;20707;-71
2023/07/21 04:40:59;;;;;;;1.88;1.77;;;21.40;86.90;;;;;;5029517;28;20281;-72
2023/07/21 04:43:25;;;;;;;2.35;2.25;;;21.40;86.50;;;;;;5027271;28;20211;-74
2023/07/21 04:45:50;;;;;;;2.55;2.08;;;21.40;86.40;;;;;;5034806;28;20234;-75
2023/07/21 04:48:16;;;;;;;2.15;2.05;;;21.40;86.50;;;;;;5031638;28;20216;-73
2023/07/21 04:50:42;;;;;;;2.30;2.10;;;21.40;86.40;;;;;;5026583;28;20261;-73
2023/07/21 04:53:11;;;;;;;2.75;2.13;;;21.50;86.20;;;;;;5025202;28;20192;-73
2023/07/21 04:55:38;;;;;;;3.40;1.95;;;21.50;85.70;;;;;;5027932;28;20212;-73
2023/07/21 04:58:05;;;;;;;2.47;2.33;;;21.50;86.10;;;;;;5029474;28;20203;-74
2023/07/21 05:00:32;;;;;;;3.78;2.92;;;21.60;85.90;;;;;;5031842;28;20251;-73
2023/07/21 05:02:57;;;;;;;2.10;2.00;;;21.60;85.90;;;;;;5033871;28;20168;-74
2023/07/21 05:05:23;;;;;;;2.17;2.00;;;21.60;85.80;;;;;;5034488;28;20263;-74
2023/07/21 05:07:49;;;;;;;2.78;2.58;;;21.70;85.80;;;;;;5030412;28;20222;-74
2023/07/21 05:10:15;;;;;;;2.58;2.45;;;21.70;86.10;;;;;;5033625;28;20184;-73
2023/07/21 05:12:40;;;;;;;2.58;2.38;;;21.70;85.80;;;;;;5037925;28;20298;-73
2023/07/21 05:15:07;;;;;;;2.70;2.60;;;21.70;85.80;;;;;;5030402;28;20657;-74
2023/07/21 05:17:34;;;;;;;1.90;1.90;;;21.80;85.60;;;;;;5036065;28;20261;-73
2023/07/21 05:20:00;;;;;;;3.22;2.40;;;21.80;85.50;;;;;;5035504;28;20218;-73
2023/07/21 05:22:25;;;;;;;3.17;2.90;;;21.80;85.20;;;;;;5029347;28;20200;-75
2023/07/21 05:24:51;;;;;;;2.55;2.50;;;21.90;85.30;;;;;;5033355;28;20567;-77
2023/07/21 05:27:17;;;;;;;3.35;3.05;;;21.80;86.70;;;;;;5035282;28;20211;-75
2023/07/21 05:29:43;;;;;;;2.38;2.28;;;21.90;85.70;;;;;;5037101;28;20184;-74
2023/07/21 05:32:09;;;;;;;2.70;2.55;;;21.90;85.20;;;;;;5023580;28;20910;-74
2023/07/21 05:34:35;;;;;;;2.47;2.42;;;22.00;85.20;;;;;;5025278;28;20682;-73
2023/07/21 05:37:01;;;;;;;2.60;2.50;;;22.10;85.00;;;;;;5025471;28;20259;-76
2023/07/21 05:39:30;;;;;;;3.15;2.95;;;22.20;84.60;;;;;;5027287;28;20176;-76
2023/07/21 05:41:58;;;;;;;3.20;3.00;;;22.20;84.60;;;;;;5028647;28;20200;-74
2023/07/21 05:44:24;;;;;;;3.42;2.58;;;22.30;84.30;;;;;;5031383;28;20226;-74
2023/07/21 05:46:50;;;;;;;3.17;1.95;;;22.40;85.60;;;;;;5031582;28;20191;-75
2023/07/21 05:49:16;;;;;;;3.00;2.38;;;22.40;85.30;;;;;;5028434;28;20216;-74
2023/07/21 05:51:43;;;;;;;2.80;2.60;;;22.30;86.00;;;;;;5023334;28;20919;-75
2023/07/21 05:54:08;;;;;;;3.92;2.33;;;22.30;86.10;;;;;;5027729;28;20187;-75
2023/07/21 05:56:34;;;;;;;2.67;2.38;;;22.40;85.80;;;;;;5030239;28;20176;-75
2023/07/21 05:59:00;;;;;;;2.40;2.30;;;22.50;84.90;;;;;;5029905;28;20676;-75
2023/07/21 06:01:27;;;;;;;2.88;1.77;;;22.50;84.40;;;;;;5029703;28;20180;-75
2023/07/21 06:03:53;;;;;;;2.15;2.05;;;22.60;84.00;;;;;;5026206;28;20187;-75
2023/07/21 06:06:18;;;;;;;2.70;2.50;;;22.70;83.70;;;;;;5026487;28;20187;-75
2023/07/21 06:08:44;;;;;;;2.70;1.95;;;22.80;83.50;;;;;;5027169;28;20729;-74
2023/07/21 06:11:10;;;;;;;2.35;2.25;;;22.90;83.60;;;;;;5025707;28;20192;-75
2023/07/21 06:13:36;;;;;;;3.60;2.15;;;22.90;84.60;;;;;;5025635;28;20180;-75
2023/07/21 06:16:01;;;;;;;2.55;2.30;;;23.00;83.40;;;;;;5026780;28;20243;-75
2023/07/21 06:18:27;;;;;;;1.88;1.77;;;23.00;83.00;;;;;;5024185;28;20552;-75
2023/07/21 06:20:53;;;;;;;2.22;1.77;;;23.10;83.10;;;;;;5025491;28;20272;-76
2023/07/21 06:23:20;;;;;;;2.22;2.13;;;23.20;82.60;;;;;;5028679;28;20184;-75
2023/07/21 06:25:46;;;;;;;2.72;2.60;;;23.30;82.30;;;;;;5029580;28;20203;-75
2023/07/21 06:28:12;;;;;;;2.38;2.28;;;23.30;82.70;;;;;;5030065;28;20216;-75
2023/07/21 06:30:38;;;;;;;2.63;2.00;;;23.40;82.70;;;;;;5027988;28;20187;-75
2023/07/21 06:33:07;;;;;;;2.15;2.05;;;23.40;82.10;;;;;;5029054;28;20184;-75
2023/07/21 06:35:34;;;;;;;3.70;2.53;;;23.40;82.30;;;;;;5029179;28;20199;-75
2023/07/21 06:38:00;;;;;;;2.67;2.17;;;23.50;82.80;;;;;;5023622;28;20237;-75
2023/07/21 06:40:26;;;;;;;2.10;2.00;;;23.50;82.20;;;;;;5028980;28;20169;-75
2023/07/21 06:42:52;;;;;;;2.17;2.10;;;23.60;82.10;;;;;;5028825;28;20176;-75
2023/07/21 06:45:18;;;;;;;1.98;1.88;;;23.70;82.00;;;;;;5024215;28;20568;-75
2023/07/21 06:47:44;;;;;;;2.55;2.40;;;23.80;81.70;;;;;;5025985;28;20220;-76
2023/07/21 06:50:10;;;;;;;2.08;1.98;;;23.80;82.00;;;;;;5027344;28;20825;-75
2023/07/21 06:52:36;;;;;;;3.05;2.80;;;23.90;81.40;;;;;;5031907;28;20795;-75
2023/07/21 06:55:02;;;;;;;2.40;2.30;;;24.00;81.20;;;;;;5025192;28;20173;-75
2023/07/21 06:57:28;;;;;;;2.70;2.50;;;24.00;81.40;;;;;;5029039;28;20200;-75
2023/07/21 06:59:54;;;;;;;2.05;1.95;;;24.10;80.80;;;;;;5021516;28;20195;-76
2023/07/21 07:02:19;;;;;;;3.25;2.13;;;24.20;80.40;;;;;;5033432;28;20191;-76
2023/07/21 07:04:47;;;;;;;2.75;2.55;;;24.30;81.10;;;;;;5024760;28;20188;-76
2023/07/21 07:07:13;;;;;;;2.80;2.60;;;24.30;80.50;;;;;;5022669;28;20172;-76
2023/07/21 07:09:39;;;;;;;2.65;2.50;;;24.40;80.20;;;;;;5027838;28;20413;-76
2023/07/21 07:12:06;;;;;;;2.28;2.17;;;24.50;78.50;;;;;;5034026;28;20269;-75
2023/07/21 07:14:32;;;;;;;2.55;2.38;;;24.50;79.40;;;;;;5022263;28;20267;-75
2023/07/21 07:16:58;;;;;;;2.58;2.47;;;24.50;78.70;;;;;;5024818;28;20800;-76
2023/07/21 07:19:23;;;;;;;4.40;2.35;;;24.60;78.90;;;;;;5029652;28;20642;-75
2023/07/21 07:21:49;;;;;;;3.08;2.90;;;24.60;78.70;;;;;;5026320;28;20196;-76
2023/07/21 07:24:15;;;;;;;3.00;2.22;;;24.70;78.90;;;;;;5021393;28;20215;-75
2023/07/21 07:26:40;;;;;;;4.85;3.42;;;24.80;78.80;;;;;;5024432;28;20188;-76
2023/07/21 07:29:06;;;;;;;3.55;3.03;;;24.90;78.80;;;;;;5025817;28;20681;-75
2023/07/21 07:31:32;;;;;;;5.70;2.63;;;25.00;78.10;;;;;;5023727;28;20915;-75
2023/07/21 07:33:58;;;;;;;2.95;2.85;;;25.00;78.40;;;;;;5028574;28;20241;-76
2023/07/21 07:36:24;;;;;;;2.78;2.67;;;25.20;78.00;;;;;;5028820;28;20188;-75
2023/07/21 07:38:49;;;;;;;3.13;2.42;;;25.20;77.80;;;;;;5030761;28;20188;-75
2023/07/21 07:41:17;;;;;;;3.22;2.40;;;25.30;77.60;;;;;;5026613;28;20180;-75
2023/07/21 07:43:43;;;;;;;2.90;2.80;;;25.40;77.30;;;;;;5030354;28;20246;-75
2023/07/21 07:46:08;;;;;;;2.75;2.55;;;25.50;76.80;;;;;;5028586;28;20621;-76
2023/07/21 07:48:34;;;;;;;3.15;2.90;;;25.50;76.30;;;;;;5027537;28;20583;-76
2023/07/21 07:51:07;;;;;;;2.60;2.40;;;25.50;75.20;;;;;;5029470;28;20181;-76
2023/07/21 07:53:34;;;;;;;7.18;3.15;;;25.40;75.40;;;;;;5030492;28;20168;-76
2023/07/21 07:55:59;;;;;;;5.82;2.22;;;25.50;75.70;;;;;;5030354;28;20172;-75
2023/07/21 07:58:28;;;;;;;5.45;2.75;;;25.50;75.60;;;;;;5031290;28;20200;-76
2023/07/21 08:00:55;;;;;;;2.90;2.70;;;25.70;74.90;;;;;;5028694;28;20176;-76
2023/07/21 08:03:21;;;;;;;5.07;2.55;;;25.70;74.10;;;;;;5024398;28;20216;-76
2023/07/21 08:05:48;;;;;;;3.40;3.13;;;25.80;75.20;;;;;;5030813;28;20284;-76
2023/07/21 08:08:14;;;;;;;2.78;2.67;;;25.90;74.70;;;;;;5030420;28;20212;-76
2023/07/21 08:10:41;;;;;;;3.65;2.55;;;25.90;74.20;;;;;;5028285;28;20188;-75
2023/07/21 08:13:07;;;;;;;2.70;2.47;;;26.10;74.10;;;;;;5031379;28;20326;-75
2023/07/21 08:15:33;;;;;;;3.28;2.88;;;26.10;74.80;;;;;;5030089;28;20693;-75
2023/07/21 08:17:59;;;;;;;3.05;2.85;;;26.20;74.70;;;;;;5029585;28;20274;-76
2023/07/21 08:20:25;;;;;;;4.63;2.70;;;26.30;74.20;;;;;;5029130;28;20650;-75
2023/07/21 08:22:51;;;;;;;2.63;2.25;;;26.30;74.40;;;;;;5026477;28;20191;-74
2023/07/21 08:25:18;;;;;;;4.50;2.67;;;26.50;74.20;;;;;;5024814;28;20568;-71
2023/07/21 08:27:44;;;;;;;2.80;2.63;;;26.60;73.80;;;;;;5025035;28;20227;-72
2023/07/21 08:30:11;;;;;;;2.78;2.53;;;26.70;72.90;;;;;;5018288;28;20180;-72
2023/07/21 08:32:38;;;;;;;2.85;2.65;;;26.80;73.40;;;;;;5027952;28;20190;-71
2023/07/21 08:35:05;;;;;;;2.88;2.67;;;26.70;70.70;;;;;;5025751;28;20575;-72
2023/07/21 08:37:30;;;;;;;3.65;2.55;;;26.80;71.70;;;;;;5026194;28;20185;-72
2023/07/21 08:39:56;;;;;;;2.63;2.42;;;26.80;72.70;;;;;;5032632;28;20717;-73
2023/07/21 08:42:24;;;;;;;2.50;2.15;;;26.90;70.30;;;;;;5022474;28;20207;-72
2023/07/21 08:44:54;;;;;;;2.30;2.10;;;27.00;69.60;;;;;;5028428;28;20249;-72
2023/07/21 08:47:23;;;;;;;3.00;2.80;;;27.00;69.00;;;;;;5027539;28;20211;-73
2023/07/21 08:49:49;;;;;;;3.15;2.53;;;27.10;70.30;;;;;;5025347;28;20238;-73
2023/07/21 08:52:15;;;;;;;3.25;2.80;;;27.30;71.10;;;;;;5027849;28;20180;-72
2023/07/21 08:54:43;;;;;;;3.40;2.70;;;27.30;71.10;;;;;;5026534;28;20631;-73
2023/07/21 08:57:11;;;;;;;3.05;2.35;;;27.40;70.80;;;;;;5030117;28;20188;-72
2023/07/21 08:59:38;;;;;;;2.42;2.33;;;27.50;69.70;;;;;;5022891;28;20177;-73
2023/07/21 09:02:04;;;;;;;3.08;2.88;;;27.70;69.60;;;;;;5031105;28;20260;-73
2023/07/21 09:04:29;;;;;;;3.22;1.95;;;27.80;69.60;;;;;;5027255;28;20168;-73
2023/07/21 09:07:00;;;;;;;3.03;2.80;;;27.90;69.10;;;;;;5029259;28;20191;-73
2023/07/21 09:09:29;;;;;;;2.67;2.47;;;28.10;69.50;;;;;;5021136;28;20192;-71
2023/07/21 09:12:02;;;;;;;3.13;2.53;;;28.20;69.10;;;;;;5034391;28;20208;-73
2023/07/21 09:14:53;;;;;;;3.40;2.65;;;28.30;68.40;;;;;;5027274;28;20184;-73
2023/07/21 09:17:19;;;;;;;2.70;2.50;;;28.50;67.50;;;;;;5022707;28;20192;-73
2023/07/21 09:19:45;;;;;;;4.07;2.63;;;28.50;67.70;;;;;;5025767;28;20181;-72
2023/07/21 09:22:11;;;;;;;3.30;2.15;;;28.60;67.70;;;;;;5029149;28;20180;-73
2023/07/21 09:24:48;;;;;;;3.25;2.30;;;28.70;67.20;;;;;;5014111;28;20583;-73
2023/07/21 09:27:16;;;;;;;2.78;2.65;;;28.90;67.70;;;;;;5029765;28;20590;-72
2023/07/21 09:29:43;;;;;;;2.85;2.17;;;29.00;66.70;;;;;;5029311;28;20240;-72
2023/07/21 09:32:16;;;;;;;2.33;1.98;;;29.10;65.40;;;;;;5029201;28;20169;-73
2023/07/21 09:35:02;;;;;;;2.47;2.03;;;29.20;66.20;;;;;;5029106;28;20192;-72
2023/07/21 09:37:30;;;;;;;2.75;2.15;;;29.40;66.50;;;;;;5021641;28;20176;-72
2023/07/21 09:40:05;;;;;;;2.45;2.25;;;29.50;65.80;;;;;;5029088;28;20271;-74
2023/07/21 09:42:32;;;;;;;2.95;2.20;;;29.60;66.00;;;;;;5027616;28;20176;-77
2023/07/21 09:44:58;;;;;;;3.53;2.55;;;29.80;66.10;;;;;;5026500;28;20181;-72
2023/07/21 09:47:24;;;;;;;2.85;2.65;;;29.90;66.10;;;;;;5034396;28;20279;-74
2023/07/21 09:49:53;;;;;;;2.55;2.40;;;30.00;65.10;;;;;;5032056;28;20180;-74
2023/07/21 09:52:20;;;;;;;5.90;2.58;;;30.20;65.70;;;;;;5030796;28;20176;-76
2023/07/21 09:55:09;;;;;;;2.53;2.33;;;30.40;65.70;;;;;;5029460;28;20213;-75
2023/07/21 09:57:41;;;;;;;2.67;2.35;;;30.60;64.80;;;;;;5028053;28;20195;-73
2023/07/21 10:00:12;;;;;;;2.50;2.40;;;30.80;64.40;;;;;;5030995;28;20662;-73
2023/07/21 10:02:43;;;;;;;3.45;3.10;;;30.90;64.50;;;;;;5030836;28;20179;-72
2023/07/21 10:05:10;;;;;;;3.20;2.88;;;31.10;63.70;;;;;;5028185;28;20188;-74
2023/07/21 10:07:47;;;;;;;4.57;2.70;;;31.30;63.30;;;;;;5031223;28;20208;-74
2023/07/21 10:10:14;;;;;;;2.80;2.58;;;31.50;63.50;;;;;;5029234;28;20184;-73
2023/07/21 10:12:49;;;;;;;6.65;2.50;;;31.70;63.00;;;;;;5021513;28;20180;-73
2023/07/21 10:15:27;;;;;;;2.90;2.70;;;32.00;63.00;;;;;;5044997;28;20190;-73
2023/07/21 10:18:07;;;;;;;3.10;2.90;;;32.30;62.90;;;;;;5033908;28;20573;-73
2023/07/21 10:20:49;;;;;;;3.17;3.08;;;32.60;61.60;;;;;;5031296;28;20199;-74
2023/07/21 10:23:37;;;;;;;2.88;2.70;;;33.00;60.20;;;;;;5025322;28;20184;-73
2023/07/21 10:26:08;;;;;;;4.93;3.03;;;33.40;59.10;;;;;;5028758;28;20192;-74
2023/07/21 10:28:43;;;;;;;2.75;2.55;;;33.80;58.30;;;;;;5041311;28;20219;-73
2023/07/21 10:31:20;;;;;;;5.47;2.83;;;34.20;58.10;;;;;;5027175;28;20305;-74
2023/07/21 10:34:06;;;;;;;4.55;3.17;;;34.70;57.30;;;;;;5029587;28;20188;-73
2023/07/21 10:36:53;;;;;;;3.25;2.72;;;35.30;56.70;;;;;;5026937;28;20205;-74
2023/07/21 10:39:25;;;;;;;3.33;2.88;;;35.80;54.70;;;;;;5036824;28;20211;-74
2023/07/21 10:41:54;;;;;;;6.75;2.70;;;36.30;53.60;;;;;;5038435;28;20386;-74
2023/07/21 10:44:20;;;;;;;3.40;3.13;;;36.90;54.40;;;;;;5038761;28;20186;-73
2023/07/21 10:46:48;;;;;;;3.38;3.13;;;37.50;53.70;;;;;;5029020;28;20575;-73
2023/07/21 10:49:16;;;;;;;3.22;3.03;;;38.00;52.90;;;;;;5029495;28;20681;-73
2023/07/21 10:51:44;;;;;;;5.53;3.17;;;38.40;51.90;;;;;;5032225;28;20172;-73
2023/07/21 10:54:10;;;;;;;4.00;2.60;;;38.90;49.60;;;;;;5031288;28;20187;-73
2023/07/21 10:56:44;;;;;;;3.83;3.17;;;39.20;50.50;;;;;;5027687;28;20180;-73
2023/07/21 10:59:10;;;;;;;5.13;2.97;;;39.60;49.50;;;;;;5030430;28;20218;-74
2023/07/21 11:01:54;;;;;;;3.38;2.95;;;39.90;49.20;;;;;;5031988;28;20192;-74
2023/07/21 11:04:21;;;;;;;2.92;2.78;;;40.30;48.40;;;;;;5031319;28;20202;-74
2023/07/21 11:06:51;;;;;;;3.65;3.30;;;40.60;48.90;;;;;;5031337;28;20188;-74
2023/07/21 11:09:18;;;;;;;4.03;2.92;;;41.00;47.80;;;;;;5027942;28;20204;-74
2023/07/21 11:11:48;;;;;;;2.97;2.80;;;41.40;49.40;;;;;;5030597;28;20286;-73
2023/07/21 11:14:20;;;;;;;2.53;2.42;;;41.60;47.50;;;;;;5029376;28;20173;-74
2023/07/21 11:16:55;;;;;;;3.03;2.92;;;41.80;47.40;;;;;;5027962;28;20191;-73
2023/07/21 11:19:22;;;;;;;8.05;3.17;;;41.90;47.20;;;;;;5028550;28;20174;-72
2023/07/21 11:21:49;;;;;;;4.15;2.92;;;42.00;47.00;;;;;;5028084;28;20603;-74
2023/07/21 11:24:22;;;;;;;4.00;3.10;;;42.20;46.60;;;;;;5031354;28;20230;-73
2023/07/21 11:26:48;;;;;;;4.22;2.78;;;42.60;46.60;;;;;;5031058;28;20211;-74
2023/07/21 11:29:18;;;;;;;7.20;2.95;;;42.90;45.90;;;;;;5031053;28;20242;-74
2023/07/21 11:31:44;;;;;;;3.90;3.00;;;43.20;45.10;;;;;;5030977;28;20657;-73
2023/07/21 11:34:26;;;;;;;2.83;2.60;;;43.30;44.90;;;;;;5031059;28;20237;-73
2023/07/21 11:36:58;;;;;;;3.70;3.13;;;43.10;45.00;;;;;;5030311;28;20178;-73
2023/07/21 11:39:25;;;;;;;3.33;3.13;;;43.20;45.90;;;;;;5021438;28;20217;-72
2023/07/21 11:41:56;;;;;;;4.88;2.97;;;43.40;46.40;;;;;;5029653;28;20176;-72
2023/07/21 11:44:31;;;;;;;6.82;3.42;;;43.30;44.60;;;;;;5029954;28;20179;-73
2023/07/21 11:47:12;;;;;;;4.05;2.80;;;43.00;44.30;;;;;;5026634;28;20187;-73
2023/07/21 11:49:40;;;;;;;3.42;3.13;;;42.70;44.30;;;;;;5029448;28;20192;-73
2023/07/21 11:52:07;;;;;;;3.17;2.83;;;42.20;44.20;;;;;;5029397;28;20616;-72
2023/07/21 11:54:40;;;;;;;3.80;2.95;;;41.80;44.40;;;;;;5030575;28;20176;-73
2023/07/21 11:57:06;;;;;;;6.90;2.80;;;41.70;47.20;;;;;;5027582;28;20211;-73
2023/07/21 11:59:32;;;;;;;2.80;2.60;;;41.70;45.40;;;;;;5030874;28;20242;-72
2023/07/21 12:02:09;;;;;;;3.38;2.30;;;41.90;44.50;;;;;;5029404;28;20638;-73
2023/07/21 12:04:37;;;;;;;3.60;2.40;;;42.40;42.40;;;;;;5030465;28;20175;-71
2023/07/21 12:07:03;;;;;;;2.67;2.53;;;42.50;46.40;;;;;;5025818;28;20633;-72
2023/07/21 12:09:28;;;;;;;3.95;2.10;;;42.10;42.30;;;;;;5028428;28;20251;-71
2023/07/21 12:11:56;;;;;;;3.88;2.42;;;41.70;44.10;;;;;;5026181;28;20239;-73
2023/07/21 12:14:23;;;;;;;2.33;2.13;;;41.70;43.60;;;;;;5031148;28;20176;-73
2023/07/21 12:16:53;;;;;;;3.35;2.30;;;41.90;45.00;;;;;;5031346;28;20223;-73
2023/07/21 12:19:19;;;;;;;2.70;2.15;;;41.60;42.60;;;;;;5022039;28;20184;-73
2023/07/21 12:21:45;;;;;;;5.35;2.22;;;41.30;43.70;;;;;;5023902;28;20258;-73
2023/07/21 12:24:11;;;;;;;2.85;2.00;;;41.20;44.10;;;;;;5031361;28;20187;-72
2023/07/21 12:26:37;;;;;;;3.85;2.03;;;41.20;43.60;;;;;;5030911;28;20184;-73
2023/07/21 12:29:03;;;;;;;3.03;2.28;;;41.50;44.80;;;;;;5023152;28;20219;-73
2023/07/21 12:31:28;;;;;;;6.63;2.67;;;41.90;42.60;;;;;;5037450;28;20625;-73
2023/07/21 12:33:54;;;;;;;2.63;2.22;;;42.10;42.40;;;;;;5030231;28;20183;-73
2023/07/21 12:36:20;;;;;;;1.83;1.75;;;42.50;42.50;;;;;;5032918;28;20187;-73
2023/07/21 12:38:46;;;;;;;4.97;1.92;;;42.90;42.20;;;;;;5033426;28;20688;-73
2023/07/21 12:41:13;;;;;;;6.05;2.60;;;43.30;44.90;;;;;;5031245;28;20187;-73
2023/07/21 12:43:39;;;;;;;3.10;1.83;;;43.60;43.10;;;;;;5035747;28;20205;-72
2023/07/21 12:46:05;;;;;;;3.53;2.10;;;43.80;44.30;;;;;;5031231;28;20179;-73
2023/07/21 12:48:32;;;;;;;3.03;2.00;;;44.20;41.20;;;;;;5031897;28;20219;-72
2023/07/21 12:50:58;;;;;;;2.13;2.03;;;44.70;41.50;;;;;;5024459;28;20180;-74